createdAt,value
2019-01-13T00:00:02.949Z,9.66
2019-01-13T00:01:08.455Z,9.73
2019-01-13T00:02:13.960Z,9.70
2019-01-13T00:03:19.465Z,9.78
2019-01-13T00:04:25.980Z,9.75
2019-01-13T00:05:30.488Z,9.75
2019-01-13T00:06:35.995Z,9.75
2019-01-13T00:07:41.524Z,9.68
2019-01-13T00:08:47.008Z,9.76
2019-01-13T00:09:52.521Z,9.71
2019-01-13T00:10:59.035Z,9.67
2019-01-13T00:12:03.539Z,9.68
2019-01-13T00:13:09.046Z,9.71
2019-01-13T00:14:14.552Z,9.68
2019-01-13T00:15:20.064Z,9.71
2019-01-13T00:16:25.626Z,9.68
2019-01-13T00:17:32.093Z,9.78
2019-01-13T00:18:36.596Z,9.76
2019-01-13T00:19:42.095Z,9.85
2019-01-13T00:20:47.599Z,9.82
2019-01-13T00:21:53.117Z,9.82
2019-01-13T00:22:58.630Z,9.79
2019-01-13T00:24:05.142Z,9.86
2019-01-13T00:25:09.636Z,9.82
2019-01-13T00:26:15.147Z,9.81
2019-01-13T00:27:20.660Z,9.81
2019-01-13T00:28:26.164Z,9.83
2019-01-13T00:29:31.676Z,9.88
2019-01-13T00:30:38.188Z,9.78
2019-01-13T00:31:42.688Z,9.83
2019-01-13T00:32:48.208Z,9.85
2019-01-13T00:33:53.709Z,9.83
2019-01-13T00:34:59.223Z,9.85
2019-01-13T00:36:04.723Z,9.82
2019-01-13T00:37:11.243Z,9.85
2019-01-13T00:38:15.757Z,9.86
2019-01-13T00:39:21.248Z,9.82
2019-01-13T00:40:26.764Z,9.79
2019-01-13T00:41:33.815Z,9.88
2019-01-13T00:42:37.779Z,9.83
2019-01-13T00:43:44.293Z,9.85
2019-01-13T00:44:48.790Z,9.86
2019-01-13T00:45:54.298Z,9.86
2019-01-13T00:46:59.810Z,9.83
2019-01-13T00:48:05.318Z,9.91
2019-01-13T00:49:10.839Z,9.94
2019-01-13T00:50:17.344Z,9.93
2019-01-13T00:51:21.840Z,9.89
2019-01-13T00:52:27.349Z,9.94
2019-01-13T00:53:32.861Z,9.88
2019-01-13T00:54:38.370Z,9.89
2019-01-13T00:55:43.880Z,9.88
2019-01-13T00:56:50.392Z,9.94
2019-01-13T00:57:54.896Z,9.94
2019-01-13T00:59:00.405Z,9.91
2019-01-13T01:00:05.909Z,9.93
2019-01-13T01:01:11.434Z,9.93
2019-01-13T01:02:16.932Z,9.93
2019-01-13T01:03:23.448Z,9.88
2019-01-13T01:04:27.955Z,9.82
2019-01-13T01:05:33.456Z,9.89
2019-01-13T01:06:38.964Z,9.91
2019-01-13T01:07:44.474Z,9.93
2019-01-13T01:08:49.987Z,9.91
2019-01-13T01:09:56.498Z,9.88
2019-01-13T01:11:00.999Z,9.88
2019-01-13T01:12:06.520Z,9.93
2019-01-13T01:13:12.016Z,9.91
2019-01-13T01:14:17.531Z,9.94
2019-01-13T01:15:23.035Z,10.01
2019-01-13T01:16:29.551Z,10.03
2019-01-13T01:17:34.059Z,10.00
2019-01-13T01:18:39.568Z,10.01
2019-01-13T01:19:45.072Z,10.07
2019-01-13T01:20:50.577Z,10.03
2019-01-13T01:21:56.092Z,10.00
2019-01-13T01:23:02.611Z,9.93
2019-01-13T01:24:07.101Z,9.99
2019-01-13T01:25:12.611Z,9.99
2019-01-13T01:26:18.117Z,10.00
2019-01-13T01:27:23.627Z,9.91
2019-01-13T01:28:29.137Z,10.03
2019-01-13T01:29:35.665Z,10.00
2019-01-13T01:30:40.161Z,9.93
2019-01-13T01:31:45.671Z,10.00
2019-01-13T01:32:51.174Z,10.00
2019-01-13T01:33:56.682Z,9.99
2019-01-13T01:35:02.199Z,10.00
2019-01-13T01:36:08.710Z,10.03
2019-01-13T01:37:13.207Z,9.99
2019-01-13T01:38:18.716Z,10.01
2019-01-13T01:39:24.224Z,10.03
2019-01-13T01:40:29.729Z,9.99
2019-01-13T01:41:35.240Z,9.96
2019-01-13T01:42:41.758Z,10.03
2019-01-13T01:43:46.261Z,10.00
2019-01-13T01:44:51.768Z,10.06
2019-01-13T01:45:57.279Z,10.01
2019-01-13T01:47:02.792Z,10.03
2019-01-13T01:48:08.295Z,10.09
2019-01-13T01:49:14.816Z,10.12
2019-01-13T01:50:19.318Z,10.10
2019-01-13T01:51:24.830Z,10.10
2019-01-13T01:52:30.331Z,10.10
2019-01-13T01:53:35.847Z,10.15
2019-01-13T01:54:41.348Z,10.10
2019-01-13T01:55:47.873Z,10.12
2019-01-13T01:56:52.364Z,10.07
2019-01-13T01:57:57.883Z,10.06
2019-01-13T01:59:03.385Z,10.10
2019-01-13T02:00:08.898Z,10.07
2019-01-13T02:01:14.399Z,10.09
2019-01-13T02:02:20.921Z,10.09
2019-01-13T02:03:25.415Z,10.06
2019-01-13T02:04:30.974Z,10.07
2019-01-13T02:05:36.439Z,10.06
2019-01-13T02:06:41.960Z,10.07
2019-01-13T02:07:47.520Z,10.06
2019-01-13T02:08:53.969Z,10.07
2019-01-13T02:09:58.469Z,10.06
2019-01-13T02:11:03.983Z,10.03
2019-01-13T02:12:09.493Z,10.09
2019-01-13T02:13:15.010Z,10.07
2019-01-13T02:14:20.516Z,10.07
2019-01-13T02:15:27.023Z,10.07
2019-01-13T02:16:31.523Z,10.09
2019-01-13T02:17:37.034Z,10.12
2019-01-13T02:18:42.543Z,10.12
2019-01-13T02:19:48.050Z,10.12
2019-01-13T02:20:53.556Z,10.19
2019-01-13T02:22:00.094Z,10.18
2019-01-13T02:23:04.577Z,10.12
2019-01-13T02:24:10.089Z,10.10
2019-01-13T02:25:15.592Z,10.12
2019-01-13T02:26:21.101Z,10.09
2019-01-13T02:27:26.609Z,10.06
2019-01-13T02:28:33.135Z,10.09
2019-01-13T02:29:37.629Z,10.15
2019-01-13T02:30:49.070Z,10.07
2019-01-13T02:31:48.652Z,10.12
2019-01-13T02:32:54.159Z,10.09
2019-01-13T02:33:59.668Z,10.04
2019-01-13T02:35:06.174Z,10.14
2019-01-13T02:36:10.700Z,10.12
2019-01-13T02:37:16.188Z,10.09
2019-01-13T02:38:21.702Z,10.15
2019-01-13T02:39:27.226Z,10.17
2019-01-13T02:40:32.717Z,10.15
2019-01-13T02:41:39.241Z,10.17
2019-01-13T02:42:43.735Z,10.18
2019-01-13T02:43:49.244Z,10.17
2019-01-13T02:44:54.755Z,10.09
2019-01-13T02:46:00.261Z,10.04
2019-01-13T02:47:05.772Z,10.07
2019-01-13T02:48:12.288Z,10.07
2019-01-13T02:49:16.799Z,10.04
2019-01-13T02:50:22.306Z,10.14
2019-01-13T02:51:28.464Z,10.10
2019-01-13T02:52:33.318Z,10.12
2019-01-13T02:53:38.837Z,10.09
2019-01-13T02:54:45.348Z,10.10
2019-01-13T02:55:49.844Z,10.09
2019-01-13T02:56:55.359Z,10.06
2019-01-13T02:58:00.857Z,10.06
2019-01-13T02:59:06.373Z,10.04
2019-01-13T03:00:11.881Z,10.07
2019-01-13T03:01:18.399Z,10.15
2019-01-13T03:02:22.898Z,10.06
2019-01-13T03:03:28.415Z,10.06
2019-01-13T03:04:33.914Z,10.04
2019-01-13T03:05:39.423Z,10.07
2019-01-13T03:06:44.938Z,10.06
2019-01-13T03:07:51.456Z,10.03
2019-01-13T03:08:55.944Z,10.18
2019-01-13T03:10:01.458Z,10.04
2019-01-13T03:11:06.967Z,10.12
2019-01-13T03:12:12.476Z,10.01
2019-01-13T03:13:17.990Z,10.04
2019-01-13T03:14:24.505Z,9.97
2019-01-13T03:15:29.006Z,10.04
2019-01-13T03:16:34.521Z,10.07
2019-01-13T03:17:40.020Z,10.04
2019-01-13T03:18:45.533Z,10.04
2019-01-13T03:19:51.037Z,10.01
2019-01-13T03:20:57.559Z,10.10
2019-01-13T03:22:02.057Z,10.10
2019-01-13T03:23:07.566Z,10.12
2019-01-13T03:24:13.068Z,10.10
2019-01-13T03:25:18.578Z,10.14
2019-01-13T03:26:24.089Z,10.06
2019-01-13T03:27:30.608Z,10.15
2019-01-13T03:28:35.123Z,10.10
2019-01-13T03:29:40.613Z,10.09
2019-01-13T03:30:46.124Z,10.09
2019-01-13T03:31:51.639Z,10.07
2019-01-13T03:32:57.146Z,10.06
2019-01-13T03:34:03.665Z,10.12
2019-01-13T03:35:08.161Z,10.12
2019-01-13T03:36:13.671Z,10.21
2019-01-13T03:37:19.184Z,10.04
2019-01-13T03:38:24.689Z,10.19
2019-01-13T03:39:30.195Z,10.18
2019-01-13T03:40:36.720Z,10.15
2019-01-13T03:41:41.213Z,10.14
2019-01-13T03:42:46.748Z,10.07
2019-01-13T03:43:52.237Z,10.10
2019-01-13T03:44:57.748Z,10.10
2019-01-13T03:46:03.253Z,10.09
2019-01-13T03:47:09.767Z,10.06
2019-01-13T03:48:14.266Z,10.06
2019-01-13T03:49:19.773Z,10.14
2019-01-13T03:50:25.281Z,10.04
2019-01-13T03:51:30.805Z,10.01
2019-01-13T03:52:36.306Z,9.99
2019-01-13T03:53:42.820Z,10.03
2019-01-13T03:54:47.318Z,10.04
2019-01-13T03:55:52.829Z,10.07
2019-01-13T03:56:58.338Z,10.10
2019-01-13T03:58:03.847Z,10.10
2019-01-13T03:59:09.358Z,10.04
2019-01-13T04:00:15.874Z,10.06
2019-01-13T04:01:20.372Z,10.14
2019-01-13T04:02:25.894Z,10.09
2019-01-13T04:03:31.389Z,10.09
2019-01-13T04:04:36.894Z,10.07
2019-01-13T04:05:42.405Z,10.10
2019-01-13T04:06:48.925Z,10.07
2019-01-13T04:07:53.428Z,10.06
2019-01-13T04:08:58.936Z,10.12
2019-01-13T04:10:04.445Z,10.10
2019-01-13T04:11:09.950Z,10.22
2019-01-13T04:12:15.456Z,10.09
2019-01-13T04:13:21.987Z,10.18
2019-01-13T04:14:26.478Z,10.19
2019-01-13T04:15:31.990Z,10.14
2019-01-13T04:16:37.500Z,10.15
2019-01-13T04:17:43.010Z,10.10
2019-01-13T04:18:48.518Z,10.18
2019-01-13T04:19:55.029Z,10.18
2019-01-13T04:20:59.528Z,10.19
2019-01-13T04:22:05.042Z,10.22
2019-01-13T04:23:10.554Z,10.25
2019-01-13T04:24:16.067Z,10.21
2019-01-13T04:25:21.566Z,10.24
2019-01-13T04:26:28.084Z,10.21
2019-01-13T04:27:32.583Z,10.19
2019-01-13T04:28:38.090Z,10.24
2019-01-13T04:29:43.601Z,10.21
2019-01-13T04:30:49.109Z,10.24
2019-01-13T04:31:54.617Z,10.14
2019-01-13T04:33:01.140Z,10.25
2019-01-13T04:34:05.635Z,10.12
2019-01-13T04:35:11.147Z,10.14
2019-01-13T04:36:16.655Z,10.17
2019-01-13T04:37:22.162Z,10.10
2019-01-13T04:38:27.677Z,10.07
2019-01-13T04:39:34.194Z,10.17
2019-01-13T04:40:38.690Z,10.12
2019-01-13T04:41:44.199Z,10.18
2019-01-13T04:42:49.707Z,10.15
2019-01-13T04:43:55.216Z,10.19
2019-01-13T04:45:00.724Z,10.06
2019-01-13T04:46:07.248Z,10.09
2019-01-13T04:47:11.745Z,10.12
2019-01-13T04:48:17.268Z,10.07
2019-01-13T04:49:22.782Z,10.19
2019-01-13T04:50:28.265Z,10.22
2019-01-13T04:51:33.778Z,10.19
2019-01-13T04:52:40.304Z,10.22
2019-01-13T04:53:44.795Z,10.10
2019-01-13T04:54:50.302Z,10.15
2019-01-13T04:55:55.810Z,10.18
2019-01-13T04:57:01.329Z,10.06
2019-01-13T04:58:06.836Z,10.10
2019-01-13T04:59:13.355Z,10.04
2019-01-13T05:00:17.847Z,10.17
2019-01-13T05:01:23.356Z,10.10
2019-01-13T05:02:28.869Z,10.18
2019-01-13T05:03:34.377Z,10.18
2019-01-13T05:04:39.897Z,10.18
2019-01-13T05:05:46.407Z,10.17
2019-01-13T05:06:50.903Z,10.12
2019-01-13T05:07:56.412Z,10.19
2019-01-13T05:09:01.925Z,10.22
2019-01-13T05:10:07.430Z,10.26
2019-01-13T05:11:12.938Z,10.22
2019-01-13T05:12:19.469Z,10.19
2019-01-13T05:13:23.961Z,10.19
2019-01-13T05:14:29.466Z,10.18
2019-01-13T05:15:34.970Z,10.25
2019-01-13T05:16:40.481Z,10.28
2019-01-13T05:17:45.996Z,10.25
2019-01-13T05:18:52.512Z,10.25
2019-01-13T05:19:57.007Z,10.19
2019-01-13T05:21:02.530Z,10.21
2019-01-13T05:22:08.032Z,10.25
2019-01-13T05:23:13.535Z,10.19
2019-01-13T05:24:19.048Z,10.22
2019-01-13T05:25:25.562Z,10.22
2019-01-13T05:26:30.061Z,10.21
2019-01-13T05:27:35.577Z,10.21
2019-01-13T05:28:41.086Z,10.26
2019-01-13T05:29:46.597Z,10.24
2019-01-13T05:30:52.135Z,10.25
2019-01-13T05:31:58.621Z,10.26
2019-01-13T05:33:03.129Z,10.21
2019-01-13T05:34:08.632Z,10.19
2019-01-13T05:35:14.130Z,10.22
2019-01-13T05:36:19.644Z,10.21
2019-01-13T05:37:25.153Z,10.26
2019-01-13T05:38:31.744Z,10.28
2019-01-13T05:39:36.171Z,10.24
2019-01-13T05:40:41.678Z,10.21
2019-01-13T05:41:47.187Z,10.17
2019-01-13T05:42:52.706Z,10.12
2019-01-13T05:43:58.218Z,10.19
2019-01-13T05:45:04.726Z,10.21
2019-01-13T05:46:09.224Z,10.19
2019-01-13T05:47:14.738Z,10.21
2019-01-13T05:48:20.245Z,10.18
2019-01-13T05:49:25.747Z,10.22
2019-01-13T05:50:31.257Z,10.19
2019-01-13T05:51:37.776Z,10.21
2019-01-13T05:52:42.287Z,10.24
2019-01-13T05:53:47.784Z,10.30
2019-01-13T05:54:53.298Z,10.24
2019-01-13T05:55:58.813Z,10.26
2019-01-13T05:57:04.330Z,10.26
2019-01-13T05:58:10.838Z,10.28
2019-01-13T05:59:15.332Z,10.32
2019-01-13T06:00:20.836Z,10.32
2019-01-13T06:01:26.347Z,10.32
2019-01-13T06:02:31.859Z,10.33
2019-01-13T06:03:37.365Z,10.33
2019-01-13T06:04:43.886Z,10.15
2019-01-13T06:05:48.386Z,10.22
2019-01-13T06:06:53.888Z,10.30
2019-01-13T06:07:59.401Z,10.32
2019-01-13T06:09:04.911Z,10.32
2019-01-13T06:10:10.421Z,10.25
2019-01-13T06:11:16.939Z,10.32
2019-01-13T06:12:21.439Z,10.26
2019-01-13T06:13:26.945Z,10.30
2019-01-13T06:14:32.462Z,10.32
2019-01-13T06:15:37.961Z,10.30
2019-01-13T06:16:43.472Z,10.28
2019-01-13T06:17:49.999Z,10.18
2019-01-13T06:18:54.491Z,10.32
2019-01-13T06:20:00.002Z,10.28
2019-01-13T06:21:05.512Z,10.30
2019-01-13T06:22:11.022Z,10.25
2019-01-13T06:23:16.524Z,10.26
2019-01-13T06:24:23.049Z,10.30
2019-01-13T06:25:27.545Z,10.32
2019-01-13T06:26:33.060Z,10.19
2019-01-13T06:27:38.561Z,10.19
2019-01-13T06:28:44.072Z,10.34
2019-01-13T06:29:49.578Z,10.26
2019-01-13T06:30:56.101Z,10.26
2019-01-13T06:32:00.599Z,10.25
2019-01-13T06:33:06.118Z,10.22
2019-01-13T06:34:11.623Z,10.26
2019-01-13T06:35:17.122Z,10.28
2019-01-13T06:36:22.636Z,10.39
2019-01-13T06:37:29.151Z,10.34
2019-01-13T06:38:33.652Z,10.30
2019-01-13T06:39:39.163Z,10.32
2019-01-13T06:40:44.667Z,10.18
2019-01-13T06:41:50.186Z,10.24
2019-01-13T06:42:55.692Z,10.26
2019-01-13T06:44:02.205Z,10.32
2019-01-13T06:45:06.702Z,10.21
2019-01-13T06:46:12.214Z,10.25
2019-01-13T06:47:17.721Z,10.21
2019-01-13T06:48:23.232Z,10.28
2019-01-13T06:49:28.740Z,10.19
2019-01-13T06:50:35.259Z,10.32
2019-01-13T06:51:39.762Z,10.19
2019-01-13T06:52:45.268Z,10.21
2019-01-13T06:53:50.787Z,10.12
2019-01-13T06:54:56.288Z,10.14
2019-01-13T06:56:01.796Z,10.18
2019-01-13T06:57:08.315Z,10.19
2019-01-13T06:58:12.811Z,10.18
2019-01-13T06:59:18.319Z,10.28
2019-01-13T07:00:23.830Z,10.17
2019-01-13T07:01:29.347Z,10.18
2019-01-13T07:02:34.845Z,10.22
2019-01-13T07:03:41.366Z,10.22
2019-01-13T07:04:45.863Z,10.22
2019-01-13T07:05:51.370Z,10.26
2019-01-13T07:06:56.889Z,10.28
2019-01-13T07:08:02.394Z,10.22
2019-01-13T07:09:07.901Z,10.25
2019-01-13T07:10:14.430Z,10.21
2019-01-13T07:11:18.923Z,10.21
2019-01-13T07:12:24.422Z,10.24
2019-01-13T07:13:29.938Z,10.28
2019-01-13T07:14:35.445Z,10.34
2019-01-13T07:15:40.955Z,10.33
2019-01-13T07:16:47.480Z,10.32
2019-01-13T07:17:51.971Z,10.28
2019-01-13T07:18:57.488Z,10.34
2019-01-13T07:20:02.997Z,10.34
2019-01-13T07:21:08.505Z,10.40
2019-01-13T07:22:14.008Z,10.33
2019-01-13T07:23:20.537Z,10.36
2019-01-13T07:24:25.026Z,10.33
2019-01-13T07:25:30.532Z,10.34
2019-01-13T07:26:36.040Z,10.36
2019-01-13T07:27:41.551Z,10.43
2019-01-13T07:28:47.064Z,10.44
2019-01-13T07:29:53.579Z,10.40
2019-01-13T07:30:58.078Z,10.52
2019-01-13T07:32:10.631Z,10.47
2019-01-13T07:33:09.093Z,10.43
2019-01-13T07:34:14.606Z,10.46
2019-01-13T07:35:20.114Z,10.51
2019-01-13T07:36:26.633Z,10.58
2019-01-13T07:37:31.133Z,10.58
2019-01-13T07:38:36.646Z,10.56
2019-01-13T07:39:42.154Z,10.55
2019-01-13T07:40:47.661Z,10.59
2019-01-13T07:41:53.163Z,10.58
2019-01-13T07:42:59.688Z,10.59
2019-01-13T07:44:04.188Z,10.58
2019-01-13T07:45:09.697Z,10.65
2019-01-13T07:46:15.204Z,10.63
2019-01-13T07:47:20.711Z,10.55
2019-01-13T07:48:26.225Z,10.65
2019-01-13T07:49:32.752Z,10.63
2019-01-13T07:50:37.240Z,10.53
2019-01-13T07:51:42.752Z,10.62
2019-01-13T07:52:48.260Z,10.62
2019-01-13T07:53:53.760Z,10.66
2019-01-13T07:54:59.280Z,10.55
2019-01-13T07:56:05.811Z,10.63
2019-01-13T07:57:10.298Z,10.56
2019-01-13T07:58:15.804Z,10.52
2019-01-13T07:59:21.316Z,10.53
2019-01-13T08:00:26.821Z,10.66
2019-01-13T08:01:32.336Z,10.58
2019-01-13T08:02:38.849Z,10.53
2019-01-13T08:03:43.384Z,10.63
2019-01-13T08:04:48.855Z,10.56
2019-01-13T08:05:54.370Z,10.66
2019-01-13T08:06:59.880Z,10.70
2019-01-13T08:08:05.387Z,10.77
2019-01-13T08:09:11.909Z,10.68
2019-01-13T08:10:16.406Z,10.73
2019-01-13T08:11:21.919Z,10.81
2019-01-13T08:12:27.425Z,10.73
2019-01-13T08:13:32.933Z,10.78
2019-01-13T08:14:38.444Z,10.76
2019-01-13T08:15:44.962Z,10.74
2019-01-13T08:16:49.476Z,10.73
2019-01-13T08:17:54.969Z,10.83
2019-01-13T08:19:00.483Z,10.80
2019-01-13T08:20:05.989Z,10.84
2019-01-13T08:21:11.498Z,10.81
2019-01-13T08:22:18.030Z,10.83
2019-01-13T08:23:22.523Z,10.89
2019-01-13T08:24:29.103Z,10.84
2019-01-13T08:25:33.538Z,10.89
2019-01-13T08:26:39.045Z,10.83
2019-01-13T08:27:44.557Z,10.83
2019-01-13T08:28:51.081Z,10.92
2019-01-13T08:29:55.578Z,10.92
2019-01-13T08:31:01.091Z,10.91
2019-01-13T08:32:06.603Z,10.81
2019-01-13T08:33:12.102Z,10.91
2019-01-13T08:34:17.610Z,10.81
2019-01-13T08:35:24.135Z,10.80
2019-01-13T08:36:28.633Z,10.80
2019-01-13T08:37:34.138Z,10.89
2019-01-13T08:38:39.653Z,11.01
2019-01-13T08:39:45.158Z,10.95
2019-01-13T08:40:50.669Z,10.95
2019-01-13T08:41:57.219Z,11.03
2019-01-13T08:43:01.685Z,10.86
2019-01-13T08:44:07.205Z,10.95
2019-01-13T08:45:12.715Z,10.89
2019-01-13T08:46:18.215Z,11.03
2019-01-13T08:47:23.725Z,10.99
2019-01-13T08:48:30.249Z,10.92
2019-01-13T08:49:34.743Z,10.88
2019-01-13T08:50:40.253Z,10.95
2019-01-13T08:51:45.763Z,10.89
2019-01-13T08:52:51.275Z,10.94
2019-01-13T08:53:56.780Z,11.01
2019-01-13T08:55:03.317Z,10.89
2019-01-13T08:56:07.803Z,11.01
2019-01-13T08:57:14.610Z,10.96
2019-01-13T08:58:18.829Z,11.01
2019-01-13T08:59:24.325Z,11.03
2019-01-13T09:00:29.834Z,10.94
2019-01-13T09:01:36.359Z,10.91
2019-01-13T09:02:40.857Z,11.07
2019-01-13T09:03:46.367Z,11.03
2019-01-13T09:04:51.877Z,10.95
2019-01-13T09:05:57.384Z,11.01
2019-01-13T09:07:02.896Z,11.09
2019-01-13T09:08:09.420Z,11.06
2019-01-13T09:09:13.913Z,11.07
2019-01-13T09:10:19.427Z,11.06
2019-01-13T09:11:24.933Z,11.06
2019-01-13T09:12:30.439Z,11.14
2019-01-13T09:13:35.951Z,11.03
2019-01-13T09:14:42.470Z,11.14
2019-01-13T09:15:46.997Z,11.13
2019-01-13T09:16:52.477Z,11.10
2019-01-13T09:17:57.989Z,11.07
2019-01-13T09:19:03.504Z,11.10
2019-01-13T09:20:09.002Z,11.13
2019-01-13T09:21:15.527Z,11.19
2019-01-13T09:22:20.062Z,11.14
2019-01-13T09:23:25.537Z,11.20
2019-01-13T09:24:31.056Z,11.28
2019-01-13T09:25:36.557Z,11.27
2019-01-13T09:26:42.062Z,11.21
2019-01-13T09:27:48.593Z,11.29
2019-01-13T09:28:53.083Z,11.21
2019-01-13T09:29:58.595Z,11.27
2019-01-13T09:31:04.104Z,11.27
2019-01-13T09:32:09.622Z,11.28
2019-01-13T09:33:15.124Z,11.32
2019-01-13T09:34:21.642Z,11.29
2019-01-13T09:35:26.141Z,11.38
2019-01-13T09:36:31.648Z,11.34
2019-01-13T09:37:37.158Z,11.39
2019-01-13T09:38:42.678Z,11.41
2019-01-13T09:39:48.175Z,11.46
2019-01-13T09:40:54.711Z,11.41
2019-01-13T09:41:59.202Z,11.43
2019-01-13T09:43:04.707Z,11.36
2019-01-13T09:44:10.227Z,11.38
2019-01-13T09:45:15.731Z,11.38
2019-01-13T09:46:21.243Z,11.46
2019-01-13T09:47:27.759Z,11.36
2019-01-13T09:48:32.259Z,11.36
2019-01-13T09:49:37.772Z,11.31
2019-01-13T09:50:43.280Z,11.35
2019-01-13T09:51:48.797Z,11.32
2019-01-13T09:52:54.296Z,11.35
2019-01-13T09:54:00.815Z,11.39
2019-01-13T09:55:05.315Z,11.34
2019-01-13T09:56:10.828Z,11.35
2019-01-13T09:57:16.333Z,11.29
2019-01-13T09:58:21.845Z,11.25
2019-01-13T09:59:27.362Z,11.34
2019-01-13T10:00:33.880Z,11.27
2019-01-13T10:01:38.374Z,11.34
2019-01-13T10:02:46.884Z,11.29
2019-01-13T10:03:49.403Z,11.34
2019-01-13T10:04:54.896Z,11.34
2019-01-13T10:06:00.413Z,11.27
2019-01-13T10:07:06.930Z,11.27
2019-01-13T10:08:11.432Z,11.29
2019-01-13T10:09:16.939Z,11.24
2019-01-13T10:10:22.449Z,11.29
2019-01-13T10:11:27.963Z,11.27
2019-01-13T10:12:33.470Z,11.29
2019-01-13T10:13:39.988Z,11.27
2019-01-13T10:14:44.495Z,11.28
2019-01-13T10:15:50.000Z,11.17
2019-01-13T10:16:55.509Z,11.21
2019-01-13T10:18:01.017Z,11.32
2019-01-13T10:19:06.534Z,11.27
2019-01-13T10:20:13.044Z,11.24
2019-01-13T10:21:17.542Z,11.16
2019-01-13T10:22:23.058Z,11.24
2019-01-13T10:23:28.562Z,11.29
2019-01-13T10:24:34.082Z,11.27
2019-01-13T10:25:39.581Z,11.25
2019-01-13T10:26:47.128Z,11.29
2019-01-13T10:27:50.602Z,11.28
2019-01-13T10:28:56.116Z,11.17
2019-01-13T10:30:01.623Z,11.25
2019-01-13T10:31:07.131Z,11.21
2019-01-13T10:32:12.646Z,11.14
2019-01-13T10:33:19.163Z,11.29
2019-01-13T10:34:23.671Z,11.25
2019-01-13T10:35:29.167Z,11.29
2019-01-13T10:36:34.689Z,11.31
2019-01-13T10:37:40.225Z,11.28
2019-01-13T10:38:45.697Z,11.19
2019-01-13T10:39:52.216Z,11.29
2019-01-13T10:40:56.716Z,11.31
2019-01-13T10:42:02.228Z,11.16
2019-01-13T10:43:07.738Z,11.29
2019-01-13T10:44:13.245Z,11.35
2019-01-13T10:45:18.755Z,11.25
2019-01-13T10:46:25.277Z,11.29
2019-01-13T10:47:29.829Z,11.25
2019-01-13T10:48:35.298Z,11.14
2019-01-13T10:49:40.807Z,11.27
2019-01-13T10:50:46.301Z,11.27
2019-01-13T10:51:51.813Z,11.27
2019-01-13T10:52:58.332Z,11.34
2019-01-13T10:54:09.074Z,11.20
2019-01-13T10:55:08.351Z,11.24
2019-01-13T10:56:13.850Z,11.21
2019-01-13T10:57:19.362Z,11.25
2019-01-13T10:58:24.875Z,11.20
2019-01-13T10:59:31.393Z,11.31
2019-01-13T11:00:35.891Z,11.28
2019-01-13T11:01:41.398Z,11.31
2019-01-13T11:02:46.909Z,11.34
2019-01-13T11:03:52.423Z,11.34
2019-01-13T11:04:57.927Z,11.32
2019-01-13T11:06:04.454Z,11.32
2019-01-13T11:07:08.951Z,11.38
2019-01-13T11:08:18.307Z,11.36
2019-01-13T11:09:20.489Z,11.36
2019-01-13T11:10:25.680Z,11.36
2019-01-13T11:11:31.257Z,11.39
2019-01-13T11:12:37.838Z,11.43
2019-01-13T11:13:42.412Z,11.44
2019-01-13T11:14:47.772Z,11.38
2019-01-13T11:15:53.036Z,11.39
2019-01-13T11:16:58.538Z,11.36
2019-01-13T11:18:04.041Z,11.36
2019-01-13T11:19:10.688Z,11.32
2019-01-13T11:20:15.205Z,11.38
2019-01-13T11:21:20.580Z,11.41
2019-01-13T11:22:26.162Z,11.36
2019-01-13T11:23:31.758Z,11.41
2019-01-13T11:24:37.184Z,11.39
2019-01-13T11:25:43.752Z,11.36
2019-01-13T11:26:48.215Z,11.32
2019-01-13T11:27:53.678Z,11.41
2019-01-13T11:28:59.200Z,11.35
2019-01-13T11:30:04.651Z,11.25
2019-01-13T11:31:10.259Z,11.35
2019-01-13T11:32:16.685Z,11.32
2019-01-13T11:33:21.173Z,11.36
2019-01-13T11:34:26.682Z,11.28
2019-01-13T11:35:32.198Z,11.36
2019-01-13T11:36:37.718Z,11.29
2019-01-13T11:37:43.220Z,11.39
2019-01-13T11:38:49.736Z,11.35
2019-01-13T11:39:54.247Z,11.43
2019-01-13T11:40:59.750Z,11.36
2019-01-13T11:42:05.363Z,11.39
2019-01-13T11:43:11.315Z,11.36
2019-01-13T11:44:16.434Z,11.43
2019-01-13T11:45:22.863Z,11.38
2019-01-13T11:46:27.398Z,11.38
2019-01-13T11:47:32.907Z,11.36
2019-01-13T11:48:38.435Z,11.38
2019-01-13T11:49:43.901Z,11.39
2019-01-13T11:50:49.410Z,11.34
2019-01-13T11:51:55.930Z,11.35
2019-01-13T11:53:00.431Z,11.41
2019-01-13T11:54:05.938Z,11.34
2019-01-13T11:55:11.502Z,11.41
2019-01-13T11:56:16.894Z,11.38
2019-01-13T11:57:22.390Z,11.43
2019-01-13T11:58:28.920Z,11.41
2019-01-13T11:59:33.414Z,11.39
2019-01-13T12:00:38.923Z,11.38
2019-01-13T12:01:44.438Z,11.36
2019-01-13T12:02:49.943Z,11.36
2019-01-13T12:03:55.448Z,11.38
2019-01-13T12:05:01.970Z,11.36
2019-01-13T12:06:06.464Z,11.46
2019-01-13T12:07:12.126Z,11.44
2019-01-13T12:08:17.642Z,11.46
2019-01-13T12:09:22.999Z,11.32
2019-01-13T12:10:28.507Z,11.46
2019-01-13T12:11:35.033Z,11.46
2019-01-13T12:12:39.748Z,11.52
2019-01-13T12:13:45.052Z,11.49
2019-01-13T12:14:50.832Z,11.44
2019-01-13T12:15:56.061Z,11.38
2019-01-13T12:17:01.588Z,11.46
2019-01-13T12:18:08.115Z,11.36
2019-01-13T12:19:12.600Z,11.47
2019-01-13T12:20:18.090Z,11.41
2019-01-13T12:21:23.602Z,11.39
2019-01-13T12:22:29.107Z,11.38
2019-01-13T12:23:34.624Z,11.34
2019-01-13T12:24:41.146Z,11.36
2019-01-13T12:25:52.344Z,11.38
2019-01-13T12:26:51.153Z,11.43
2019-01-13T12:27:56.717Z,11.39
2019-01-13T12:29:02.177Z,11.39
2019-01-13T12:30:07.843Z,11.38
2019-01-13T12:31:14.366Z,11.36
2019-01-13T12:32:18.773Z,11.38
2019-01-13T12:33:24.720Z,11.36
2019-01-13T12:34:29.746Z,11.38
2019-01-13T12:35:35.229Z,11.35
2019-01-13T12:36:41.449Z,11.38
2019-01-13T12:37:47.276Z,11.38
2019-01-13T12:38:51.802Z,11.38
2019-01-13T12:39:57.265Z,11.36
2019-01-13T12:41:02.799Z,11.38
2019-01-13T12:42:08.291Z,11.35
2019-01-13T12:43:13.792Z,11.41
2019-01-13T12:44:20.322Z,11.34
2019-01-13T12:45:24.815Z,11.38
2019-01-13T12:46:30.342Z,11.32
2019-01-13T12:47:35.836Z,11.36
2019-01-13T12:48:41.341Z,11.31
2019-01-13T12:49:46.861Z,11.36
2019-01-13T12:50:53.373Z,11.32
2019-01-13T12:51:57.875Z,11.25
2019-01-13T12:53:03.377Z,11.36
2019-01-13T12:54:08.891Z,11.32
2019-01-13T12:55:14.396Z,11.29
2019-01-13T12:56:19.932Z,11.21
2019-01-13T12:57:26.428Z,11.29
2019-01-13T12:58:30.930Z,11.27
2019-01-13T12:59:36.447Z,11.32
2019-01-13T13:00:41.945Z,11.29
2019-01-13T13:01:47.457Z,11.31
2019-01-13T13:02:52.973Z,11.28
2019-01-13T13:03:59.485Z,11.36
2019-01-13T13:05:03.988Z,11.32
2019-01-13T13:06:09.502Z,11.36
2019-01-13T13:07:15.040Z,11.32
2019-01-13T13:08:20.530Z,11.31
2019-01-13T13:09:26.021Z,11.39
2019-01-13T13:10:32.550Z,11.31
2019-01-13T13:11:37.049Z,11.27
2019-01-13T13:12:42.556Z,11.21
2019-01-13T13:13:48.059Z,11.25
2019-01-13T13:14:53.576Z,11.29
2019-01-13T13:15:59.081Z,11.19
2019-01-13T13:17:05.598Z,11.29
2019-01-13T13:18:10.106Z,11.20
2019-01-13T13:19:15.616Z,11.25
2019-01-13T13:20:21.120Z,11.27
2019-01-13T13:21:26.631Z,11.21
2019-01-13T13:22:32.141Z,11.25
2019-01-13T13:23:38.656Z,11.28
2019-01-13T13:24:43.160Z,11.32
2019-01-13T13:25:48.662Z,11.29
2019-01-13T13:26:54.176Z,11.35
2019-01-13T13:27:59.692Z,11.35
2019-01-13T13:29:05.195Z,11.29
2019-01-13T13:30:11.717Z,11.34
2019-01-13T13:31:16.222Z,11.31
2019-01-13T13:32:21.728Z,11.31
2019-01-13T13:33:27.243Z,11.32
2019-01-13T13:34:32.741Z,11.32
2019-01-13T13:35:40.016Z,11.24
2019-01-13T13:36:44.770Z,11.32
2019-01-13T13:37:49.270Z,11.25
2019-01-13T13:38:54.780Z,11.25
2019-01-13T13:40:00.289Z,11.29
2019-01-13T13:41:05.796Z,11.28
2019-01-13T13:42:11.322Z,11.32
2019-01-13T13:43:17.843Z,11.35
2019-01-13T13:44:22.328Z,11.39
2019-01-13T13:45:27.834Z,11.41
2019-01-13T13:46:33.351Z,11.38
2019-01-13T13:47:38.862Z,11.38
2019-01-13T13:48:44.368Z,11.39
2019-01-13T13:49:50.883Z,11.36
2019-01-13T13:50:55.398Z,11.34
2019-01-13T13:52:00.896Z,11.34
2019-01-13T13:53:06.402Z,11.32
2019-01-13T13:54:11.913Z,11.35
2019-01-13T13:55:17.427Z,11.38
2019-01-13T13:56:23.938Z,11.39
2019-01-13T13:57:28.440Z,11.36
2019-01-13T13:58:33.956Z,11.38
2019-01-13T13:59:39.461Z,11.43
2019-01-13T14:00:44.972Z,11.35
2019-01-13T14:01:50.483Z,11.28
2019-01-13T14:02:56.998Z,11.32
2019-01-13T14:04:01.507Z,11.32
2019-01-13T14:05:08.465Z,11.44
2019-01-13T14:06:12.519Z,11.28